Terminal Aerodrome Forecast
Issued by NWS Grand Forks, ND

Home | Current Version | Previous Version | Text Only | Print | Product List | Glossary Off
Versions: 1 2 3 4 5 6 7 8 9 10 11 12 13 14 15 16 17 18 19 20 21 22

805
FTUS43 KFGF 270858 AAC
TAFGFK
TAF AMD
KGFK 270858Z 2709/2806 00000KT 2SM BR OVC002
      TEMPO 2709/2713 1/4SM FG
     FM271300 VRB03KT 1SM BR OVC004
     FM271500 VRB03KT 5SM BR OVC008
     FM271800 VRB03KT P6SM OVC035=

USA.gov is the U.S. government's official web portal to all federal, state and local government web resources and services.